sensor_id;sensor_type;location;lat;lon;timestamp;pressure;altitude;pressure_sealevel;temperature;humidity
68889;BME280;55930;47.412;8.790;2024-01-15T00:01:09;93584.91;;;0.96;100.00
68889;BME280;55930;47.412;8.790;2024-01-15T00:04:30;93581.06;;;0.88;100.00
68889;BME280;55930;47.412;8.790;2024-01-15T00:07:50;93575.63;;;0.83;100.00
68889;BME280;55930;47.412;8.790;2024-01-15T00:11:11;93575.31;;;0.81;100.00
68889;BME280;55930;47.412;8.790;2024-01-15T00:14:31;93577.72;;;0.75;100.00
68889;BME280;55930;47.412;8.790;2024-01-15T00:17:51;93579.63;;;0.74;100.00
68889;BME280;55930;47.412;8.790;2024-01-15T00:21:12;93565.50;;;0.72;100.00
68889;BME280;55930;47.412;8.790;2024-01-15T00:24:32;93560.81;;;0.67;100.00
68889;BME280;55930;47.412;8.790;2024-01-15T00:27:52;93555.94;;;0.69;100.00
68889;BME280;55930;47.412;8.790;2024-01-15T00:31:16;93544.84;;;0.65;100.00
68889;BME280;55930;47.412;8.790;2024-01-15T00:34:37;93540.50;;;0.62;100.00
68889;BME280;55930;47.412;8.790;2024-01-15T00:37:57;93543.41;;;0.64;100.00
68889;BME280;55930;47.412;8.790;2024-01-15T00:41:17;93546.84;;;0.61;100.00
68889;BME280;55930;47.412;8.790;2024-01-15T00:44:38;93551.25;;;0.64;100.00
68889;BME280;55930;47.412;8.790;2024-01-15T00:47:59;93542.69;;;0.63;100.00
68889;BME280;55930;47.412;8.790;2024-01-15T00:51:21;93547.06;;;0.66;100.00
68889;BME280;55930;47.412;8.790;2024-01-15T00:54:41;93548.63;;;0.64;100.00
68889;BME280;55930;47.412;8.790;2024-01-15T00:58:01;93546.84;;;0.61;100.00
68889;BME280;55930;47.412;8.790;2024-01-15T01:01:22;93543.00;;;0.53;100.00
68889;BME280;55930;47.412;8.790;2024-01-15T01:04:45;93544.03;;;0.55;100.00
68889;BME280;55930;47.412;8.790;2024-01-15T01:08:05;93551.44;;;0.57;100.00
68889;BME280;55930;47.412;8.790;2024-01-15T01:11:26;93556.97;;;0.59;100.00
68889;BME280;55930;47.412;8.790;2024-01-15T01:14:46;93555.63;;;0.54;100.00
68889;BME280;55930;47.412;8.790;2024-01-15T01:18:06;93566.78;;;0.55;100.00
68889;BME280;55930;47.412;8.790;2024-01-15T01:21:27;93570.97;;;0.40;100.00
68889;BME280;55930;47.412;8.790;2024-01-15T01:24:47;93567.50;;;0.43;100.00
68889;BME280;55930;47.412;8.790;2024-01-15T01:28:07;93564.25;;;0.26;100.00
68889;BME280;55930;47.412;8.790;2024-01-15T01:31:28;93567.94;;;0.28;100.00
68889;BME280;55930;47.412;8.790;2024-01-15T01:34:48;93571.34;;;0.25;100.00
68889;BME280;55930;47.412;8.790;2024-01-15T01:38:08;93562.78;;;0.12;100.00
68889;BME280;55930;47.412;8.790;2024-01-15T01:41:29;93571.97;;;0.04;100.00
68889;BME280;55930;47.412;8.790;2024-01-15T01:44:51;93577.91;;;0.05;100.00
68889;BME280;55930;47.412;8.790;2024-01-15T01:48:13;93566.94;;;-0.03;100.00
68889;BME280;55930;47.412;8.790;2024-01-15T01:51:34;93569.50;;;-0.16;100.00
68889;BME280;55930;47.412;8.790;2024-01-15T01:54:56;93569.28;;;-0.21;100.00
68889;BME280;55930;47.412;8.790;2024-01-15T01:58:18;93574.91;;;-0.23;100.00
68889;BME280;55930;47.412;8.790;2024-01-15T02:01:39;93581.69;;;-0.25;100.00
68889;BME280;55930;47.412;8.790;2024-01-15T02:05:02;93587.81;;;-0.32;100.00
68889;BME280;55930;47.412;8.790;2024-01-15T02:08:24;93595.97;;;-0.46;100.00
68889;BME280;55930;47.412;8.790;2024-01-15T02:11:48;93590.22;;;-0.54;100.00
68889;BME280;55930;47.412;8.790;2024-01-15T02:15:09;93588.34;;;-0.53;100.00
68889;BME280;55930;47.412;8.790;2024-01-15T02:18:39;93578.69;;;-0.69;100.00
68889;BME280;55930;47.412;8.790;2024-01-15T02:22:00;93582.78;;;-0.68;100.00
68889;BME280;55930;47.412;8.790;2024-01-15T02:25:22;93581.00;;;-0.87;100.00
68889;BME280;55930;47.412;8.790;2024-01-15T02:28:43;93582.53;;;-0.73;100.00
68889;BME280;55930;47.412;8.790;2024-01-15T02:32:05;93577.44;;;-0.93;100.00
68889;BME280;55930;47.412;8.790;2024-01-15T02:35:28;93581.56;;;-0.80;100.00
68889;BME280;55930;47.412;8.790;2024-01-15T02:38:48;93586.47;;;-0.98;100.00
68889;BME280;55930;47.412;8.790;2024-01-15T02:42:11;93583.88;;;-0.98;100.00
68889;BME280;55930;47.412;8.790;2024-01-15T02:45:33;93580.03;;;-0.93;100.00
68889;BME280;55930;47.412;8.790;2024-01-15T02:48:54;93584.22;;;-1.12;100.00
68889;BME280;55930;47.412;8.790;2024-01-15T02:52:14;93589.97;;;-1.21;100.00
68889;BME280;55930;47.412;8.790;2024-01-15T02:55:37;93596.06;;;-1.11;100.00
68889;BME280;55930;47.412;8.790;2024-01-15T02:58:57;93604.19;;;-1.09;100.00
68889;BME280;55930;47.412;8.790;2024-01-15T03:02:18;93597.78;;;-1.21;100.00
68889;BME280;55930;47.412;8.790;2024-01-15T03:05:38;93596.53;;;-1.32;100.00
68889;BME280;55930;47.412;8.790;2024-01-15T03:08:58;93593.59;;;-1.34;100.00
68889;BME280;55930;47.412;8.790;2024-01-15T03:12:21;93594.09;;;-1.39;100.00
68889;BME280;55930;47.412;8.790;2024-01-15T03:15:42;93587.25;;;-1.49;100.00
68889;BME280;55930;47.412;8.790;2024-01-15T03:19:03;93583.63;;;-1.52;100.00
68889;BME280;55930;47.412;8.790;2024-01-15T03:22:23;93585.22;;;-1.42;100.00
68889;BME280;55930;47.412;8.790;2024-01-15T03:25:43;93582.53;;;-1.55;100.00
68889;BME280;55930;47.412;8.790;2024-01-15T03:29:04;93566.13;;;-1.51;100.00
68889;BME280;55930;47.412;8.790;2024-01-15T03:32:25;93577.41;;;-1.58;100.00
68889;BME280;55930;47.412;8.790;2024-01-15T03:35:45;93573.38;;;-1.43;100.00
68889;BME280;55930;47.412;8.790;2024-01-15T03:39:05;93568.81;;;-1.55;100.00
68889;BME280;55930;47.412;8.790;2024-01-15T03:42:26;93560.34;;;-1.59;100.00
68889;BME280;55930;47.412;8.790;2024-01-15T03:45:46;93558.31;;;-1.51;100.00
68889;BME280;55930;47.412;8.790;2024-01-15T03:49:07;93558.66;;;-1.49;100.00
68889;BME280;55930;47.412;8.790;2024-01-15T03:52:27;93559.72;;;-1.47;100.00
68889;BME280;55930;47.412;8.790;2024-01-15T03:55:47;93559.22;;;-1.58;100.00
68889;BME280;55930;47.412;8.790;2024-01-15T03:59:08;93572.63;;;-1.43;100.00
68889;BME280;55930;47.412;8.790;2024-01-15T04:02:28;93564.69;;;-1.52;100.00
68889;BME280;55930;47.412;8.790;2024-01-15T04:05:48;93569.44;;;-1.51;100.00
68889;BME280;55930;47.412;8.790;2024-01-15T04:09:09;93568.13;;;-1.59;100.00
68889;BME280;55930;47.412;8.790;2024-01-15T04:12:31;93557.16;;;-1.67;100.00
68889;BME280;55930;47.412;8.790;2024-01-15T04:15:54;93556.59;;;-1.58;100.00
68889;BME280;55930;47.412;8.790;2024-01-15T04:19:15;93547.22;;;-1.52;100.00
68889;BME280;55930;47.412;8.790;2024-01-15T04:22:35;93545.06;;;-1.57;100.00
68889;BME280;55930;47.412;8.790;2024-01-15T04:25:58;93547.19;;;-1.68;100.00
68889;BME280;55930;47.412;8.790;2024-01-15T04:29:18;93551.91;;;-1.63;100.00
68889;BME280;55930;47.412;8.790;2024-01-15T04:32:39;93545.63;;;-1.66;100.00
68889;BME280;55930;47.412;8.790;2024-01-15T04:36:04;93555.16;;;-1.59;100.00
68889;BME280;55930;47.412;8.790;2024-01-15T04:39:25;93550.53;;;-1.68;100.00
68889;BME280;55930;47.412;8.790;2024-01-15T04:42:45;93555.88;;;-1.59;100.00
68889;BME280;55930;47.412;8.790;2024-01-15T04:46:06;93556.13;;;-1.69;100.00
68889;BME280;55930;47.412;8.790;2024-01-15T04:49:29;93542.25;;;-1.63;100.00
68889;BME280;55930;47.412;8.790;2024-01-15T04:52:50;93540.13;;;-1.51;100.00
68889;BME280;55930;47.412;8.790;2024-01-15T04:56:10;93535.34;;;-1.69;100.00
68889;BME280;55930;47.412;8.790;2024-01-15T04:59:31;93539.97;;;-1.61;100.00
68889;BME280;55930;47.412;8.790;2024-01-15T05:02:51;93545.00;;;-1.70;100.00
68889;BME280;55930;47.412;8.790;2024-01-15T05:06:12;93542.88;;;-1.59;100.00
68889;BME280;55930;47.412;8.790;2024-01-15T05:09:32;93534.19;;;-1.68;100.00
68889;BME280;55930;47.412;8.790;2024-01-15T05:12:52;93521.19;;;-1.68;100.00
68889;BME280;55930;47.412;8.790;2024-01-15T05:16:13;93526.88;;;-1.57;100.00
68889;BME280;55930;47.412;8.790;2024-01-15T05:19:33;93523.88;;;-1.56;100.00
68889;BME280;55930;47.412;8.790;2024-01-15T05:22:53;93531.34;;;-1.58;100.00
68889;BME280;55930;47.412;8.790;2024-01-15T05:26:14;93528.09;;;-1.62;100.00
68889;BME280;55930;47.412;8.790;2024-01-15T05:29:34;93536.31;;;-1.63;100.00
68889;BME280;55930;47.412;8.790;2024-01-15T05:32:54;93538.22;;;-1.67;100.00
68889;BME280;55930;47.412;8.790;2024-01-15T05:36:17;93533.94;;;-1.74;100.00
68889;BME280;55930;47.412;8.790;2024-01-15T05:39:40;93531.44;;;-1.61;100.00
68889;BME280;55930;47.412;8.790;2024-01-15T05:43:00;93521.50;;;-1.66;100.00
68889;BME280;55930;47.412;8.790;2024-01-15T05:46:21;93524.34;;;-1.77;100.00
68889;BME280;55930;47.412;8.790;2024-01-15T05:49:41;93528.09;;;-1.62;100.00
68889;BME280;55930;47.412;8.790;2024-01-15T05:53:01;93522.41;;;-1.57;100.00
68889;BME280;55930;47.412;8.790;2024-01-15T05:56:22;93521.19;;;-1.68;100.00
68889;BME280;55930;47.412;8.790;2024-01-15T05:59:44;93527.78;;;-1.64;100.00
68889;BME280;55930;47.412;8.790;2024-01-15T06:03:05;93528.16;;;-1.65;100.00
68889;BME280;55930;47.412;8.790;2024-01-15T06:06:25;93526.94;;;-1.77;100.00
68889;BME280;55930;47.412;8.790;2024-01-15T06:09:47;93525.09;;;-1.76;100.00
68889;BME280;55930;47.412;8.790;2024-01-15T06:13:07;93518.91;;;-1.66;100.00
68889;BME280;55930;47.412;8.790;2024-01-15T06:16:28;93514.44;;;-1.66;100.00
68889;BME280;55930;47.412;8.790;2024-01-15T06:19:48;93512.34;;;-1.71;100.00
68889;BME280;55930;47.412;8.790;2024-01-15T06:23:09;93521.78;;;-1.61;100.00
68889;BME280;55930;47.412;8.790;2024-01-15T06:26:29;93516.06;;;-1.72;100.00
68889;BME280;55930;47.412;8.790;2024-01-15T06:29:50;93516.56;;;-1.77;100.00
68889;BME280;55930;47.412;8.790;2024-01-15T06:33:10;93520.19;;;-1.74;100.00
68889;BME280;55930;47.412;8.790;2024-01-15T06:36:31;93510.81;;;-1.68;100.00
68889;BME280;55930;47.412;8.790;2024-01-15T06:39:51;93522.97;;;-1.65;100.00
68889;BME280;55930;47.412;8.790;2024-01-15T06:43:12;93528.56;;;-1.67;100.00
68889;BME280;55930;47.412;8.790;2024-01-15T06:46:33;93515.44;;;-1.76;100.00
68889;BME280;55930;47.412;8.790;2024-01-15T06:49:53;93514.91;;;-1.87;100.00
68889;BME280;55930;47.412;8.790;2024-01-15T06:53:13;93508.50;;;-1.82;100.00
68889;BME280;55930;47.412;8.790;2024-01-15T06:56:36;93513.13;;;-1.74;100.00
68889;BME280;55930;47.412;8.790;2024-01-15T06:59:57;93504.44;;;-1.83;100.00
68889;BME280;55930;47.412;8.790;2024-01-15T07:03:17;93508.09;;;-1.81;100.00
68889;BME280;55930;47.412;8.790;2024-01-15T07:06:40;93515.44;;;-1.76;100.00
68889;BME280;55930;47.412;8.790;2024-01-15T07:10:00;93515.25;;;-1.85;100.00
68889;BME280;55930;47.412;8.790;2024-01-15T07:13:21;93513.81;;;-1.70;100.00
68889;BME280;55930;47.412;8.790;2024-01-15T07:16:41;93506.41;;;-1.71;100.00
68889;BME280;55930;47.412;8.790;2024-01-15T07:20:02;93521.19;;;-1.68;100.00
68889;BME280;55930;47.412;8.790;2024-01-15T07:23:22;93522.97;;;-1.65;100.00
68889;BME280;55930;47.412;8.790;2024-01-15T07:26:42;93526.41;;;-1.68;100.00
68889;BME280;55930;47.412;8.790;2024-01-15T07:30:05;93520.63;;;-1.60;100.00
68889;BME280;55930;47.412;8.790;2024-01-15T07:33:27;93513.72;;;-1.66;100.00
68889;BME280;55930;47.412;8.790;2024-01-15T07:36:47;93522.63;;;-1.67;100.00
68889;BME280;55930;47.412;8.790;2024-01-15T07:40:08;93528.25;;;-1.69;100.00
68889;BME280;55930;47.412;8.790;2024-01-15T07:43:31;93532.97;;;-1.64;100.00
68889;BME280;55930;47.412;8.790;2024-01-15T07:46:51;93528.75;;;-1.58;100.00
68889;BME280;55930;47.412;8.790;2024-01-15T07:50:11;93517.72;;;-1.62;100.00
68889;BME280;55930;47.412;8.790;2024-01-15T07:53:32;93524.69;;;-1.59;100.00
68889;BME280;55930;47.412;8.790;2024-01-15T07:56:54;93529.56;;;-1.61;100.00
68889;BME280;55930;47.412;8.790;2024-01-15T08:00:15;93533.88;;;-1.70;100.00
68889;BME280;55930;47.412;8.790;2024-01-15T08:03:36;93533.16;;;-1.55;100.00
68889;BME280;55930;47.412;8.790;2024-01-15T08:06:56;93523.06;;;-1.52;100.00
68889;BME280;55930;47.412;8.790;2024-01-15T08:10:17;93532.75;;;-1.53;100.00
68889;BME280;55930;47.412;8.790;2024-01-15T08:13:37;93532.09;;;-1.41;100.00
68889;BME280;55930;47.412;8.790;2024-01-15T08:16:58;93535.97;;;-1.49;100.00
68889;BME280;55930;47.412;8.790;2024-01-15T08:20:18;93537.69;;;-1.42;100.00
68889;BME280;55930;47.412;8.790;2024-01-15T08:23:38;93534.28;;;-1.56;100.00
68889;BME280;55930;47.412;8.790;2024-01-15T08:26:59;93538.97;;;-1.50;100.00
68889;BME280;55930;47.412;8.790;2024-01-15T08:30:19;93533.06;;;-1.51;100.00
68889;BME280;55930;47.412;8.790;2024-01-15T08:33:41;93535.81;;;-1.58;100.00
68889;BME280;55930;47.412;8.790;2024-01-15T08:37:01;93529.97;;;-1.46;100.00
68889;BME280;55930;47.412;8.790;2024-01-15T08:40:22;93533.94;;;-1.41;100.00
68889;BME280;55930;47.412;8.790;2024-01-15T08:43:43;93533.06;;;-1.35;100.00
68889;BME280;55930;47.412;8.790;2024-01-15T08:47:03;93534.63;;;-1.37;100.00
68889;BME280;55930;47.412;8.790;2024-01-15T08:50:23;93545.91;;;-1.28;100.00
68889;BME280;55930;47.412;8.790;2024-01-15T08:53:44;93535.41;;;-1.40;100.00
68889;BME280;55930;47.412;8.790;2024-01-15T08:57:06;93542.50;;;-1.41;100.00
68889;BME280;55930;47.412;8.790;2024-01-15T09:00:27;93551.03;;;-1.40;100.00
68889;BME280;55930;47.412;8.790;2024-01-15T09:03:47;93552.72;;;-1.34;100.00
68889;BME280;55930;47.412;8.790;2024-01-15T09:07:08;93537.94;;;-1.37;100.00
68889;BME280;55930;47.412;8.790;2024-01-15T09:10:28;93553.78;;;-1.31;100.00
68889;BME280;55930;47.412;8.790;2024-01-15T09:13:49;93553.69;;;-1.28;100.00
68889;BME280;55930;47.412;8.790;2024-01-15T09:17:09;93554.34;;;-1.40;100.00
68889;BME280;55930;47.412;8.790;2024-01-15T09:20:30;93538.75;;;-1.40;100.00
68889;BME280;55930;47.412;8.790;2024-01-15T09:23:50;93549.97;;;-1.27;100.00
68889;BME280;55930;47.412;8.790;2024-01-15T09:27:11;93548.81;;;-1.42;100.00
68889;BME280;55930;47.412;8.790;2024-01-15T09:30:31;93539.47;;;-1.23;100.00
68889;BME280;55930;47.412;8.790;2024-01-15T09:33:52;93545.03;;;-1.37;100.00
68889;BME280;55930;47.412;8.790;2024-01-15T09:37:16;93543.38;;;-1.31;100.00
68889;BME280;55930;47.412;8.790;2024-01-15T09:40:38;93532.59;;;-1.30;100.00
68889;BME280;55930;47.412;8.790;2024-01-15T09:43:58;93537.50;;;-1.19;100.00
68889;BME280;55930;47.412;8.790;2024-01-15T09:47:19;93536.66;;;-1.29;100.00
68889;BME280;55930;47.412;8.790;2024-01-15T09:50:42;93539.09;;;-1.22;100.00
68889;BME280;55930;47.412;8.790;2024-01-15T09:54:03;93543.63;;;-1.09;100.00
68889;BME280;55930;47.412;8.790;2024-01-15T09:57:24;93540.69;;;-1.11;100.00
68889;BME280;55930;47.412;8.790;2024-01-15T10:00:47;93532.81;;;-1.24;100.00
68889;BME280;55930;47.412;8.790;2024-01-15T10:04:11;93532.88;;;-1.11;100.00
68889;BME280;55930;47.412;8.790;2024-01-15T10:07:35;93531.28;;;-1.22;100.00
68889;BME280;55930;47.412;8.790;2024-01-15T10:10:56;93524.09;;;-1.18;100.00
68889;BME280;55930;47.412;8.790;2024-01-15T10:14:16;93524.19;;;-1.05;100.00
68889;BME280;55930;47.412;8.790;2024-01-15T10:17:38;93517.75;;;-1.00;100.00
68889;BME280;55930;47.412;8.790;2024-01-15T10:21:01;93511.59;;;-1.06;100.00
68889;BME280;55930;47.412;8.790;2024-01-15T10:24:22;93496.94;;;-1.00;100.00
68889;BME280;55930;47.412;8.790;2024-01-15T10:27:43;93501.88;;;-0.90;100.00
68889;BME280;55930;47.412;8.790;2024-01-15T10:31:04;93496.75;;;-0.93;100.00
68889;BME280;55930;47.412;8.790;2024-01-15T10:34:25;93478.72;;;-1.00;100.00
68889;BME280;55930;47.412;8.790;2024-01-15T10:37:47;93474.78;;;-0.92;100.00
68889;BME280;55930;47.412;8.790;2024-01-15T10:41:07;93470.91;;;-1.00;100.00
68889;BME280;55930;47.412;8.790;2024-01-15T10:44:28;93467.31;;;-0.90;100.00
68889;BME280;55930;47.412;8.790;2024-01-15T10:47:49;93471.78;;;-0.91;100.00
68889;BME280;55930;47.412;8.790;2024-01-15T10:51:09;93469.41;;;-0.85;100.00
68889;BME280;55930;47.412;8.790;2024-01-15T10:54:31;93473.78;;;-0.82;100.00
68889;BME280;55930;47.412;8.790;2024-01-15T10:57:52;93473.13;;;-0.86;100.00
68889;BME280;55930;47.412;8.790;2024-01-15T11:01:16;93479.16;;;-0.60;100.00
68889;BME280;55930;47.412;8.790;2024-01-15T11:04:37;93467.38;;;-0.65;100.00
68889;BME280;55930;47.412;8.790;2024-01-15T11:08:01;93460.72;;;-0.66;100.00
68889;BME280;55930;47.412;8.790;2024-01-15T11:11:21;93463.63;;;-0.64;100.00
68889;BME280;55930;47.412;8.790;2024-01-15T11:14:51;93457.34;;;-0.79;100.00
68889;BME280;55930;47.412;8.790;2024-01-15T11:18:11;93459.78;;;-0.72;100.00
68889;BME280;55930;47.412;8.790;2024-01-15T11:21:32;93456.38;;;-0.85;100.00
68889;BME280;55930;47.412;8.790;2024-01-15T11:24:52;93455.28;;;-0.71;100.00
68889;BME280;55930;47.412;8.790;2024-01-15T11:28:48;93452.84;;;-0.50;100.00
68889;BME280;55930;47.412;8.790;2024-01-15T11:32:09;93455.97;;;-0.42;100.00
68889;BME280;55930;47.412;8.790;2024-01-15T11:35:48;93469.94;;;-0.49;100.00
68889;BME280;55930;47.412;8.790;2024-01-15T11:42:49;93459.13;;;-0.34;100.00
68889;BME280;55930;47.412;8.790;2024-01-15T11:46:12;93436.28;;;-0.43;100.00
68889;BME280;55930;47.412;8.790;2024-01-15T11:49:57;93440.97;;;-0.38;100.00
68889;BME280;55930;47.412;8.790;2024-01-15T11:53:43;93435.56;;;-0.44;100.00
68889;BME280;55930;47.412;8.790;2024-01-15T11:57:18;93425.56;;;-0.32;100.00
68889;BME280;55930;47.412;8.790;2024-01-15T12:00:44;93428.19;;;-0.32;100.00
68889;BME280;55930;47.412;8.790;2024-01-15T12:04:04;93416.91;;;-0.29;100.00
68889;BME280;55930;47.412;8.790;2024-01-15T12:07:25;93419.72;;;-0.36;100.00
68889;BME280;55930;47.412;8.790;2024-01-15T12:10:45;93412.44;;;-0.42;100.00
68889;BME280;55930;47.412;8.790;2024-01-15T12:14:05;93408.75;;;-0.31;100.00
68889;BME280;55930;47.412;8.790;2024-01-15T12:17:26;93411.28;;;-0.41;100.00
68889;BME280;55930;47.412;8.790;2024-01-15T12:20:46;93405.03;;;-0.18;100.00
68889;BME280;55930;47.412;8.790;2024-01-15T12:24:07;93406.69;;;-0.24;100.00
68889;BME280;55930;47.412;8.790;2024-01-15T12:27:29;93408.56;;;-0.37;100.00
68889;BME280;55930;47.412;8.790;2024-01-15T12:30:50;93418.56;;;-0.35;100.00
68889;BME280;55930;47.412;8.790;2024-01-15T12:34:10;93416.19;;;-0.17;100.00
68889;BME280;55930;47.412;8.790;2024-01-15T12:37:31;93415.88;;;-0.19;100.00
68889;BME280;55930;47.412;8.790;2024-01-15T12:40:51;93415.88;;;-0.19;100.00
68889;BME280;55930;47.412;8.790;2024-01-15T12:44:11;93414.31;;;-0.17;100.00
68889;BME280;55930;47.412;8.790;2024-01-15T12:47:32;93415.13;;;-0.07;100.00
68889;BME280;55930;47.412;8.790;2024-01-15T12:50:53;93403.69;;;-0.10;100.00
68889;BME280;55930;47.412;8.790;2024-01-15T12:54:13;93410.78;;;-0.10;100.00
68889;BME280;55930;47.412;8.790;2024-01-15T12:57:37;93402.22;;;-0.11;100.00
68889;BME280;55930;47.412;8.790;2024-01-15T13:00:57;93406.91;;;0.07;100.00
68889;BME280;55930;47.412;8.790;2024-01-15T13:04:22;93405.22;;;0.13;100.00
68889;BME280;55930;47.412;8.790;2024-01-15T13:07:44;93414.28;;;0.21;100.00
68889;BME280;55930;47.412;8.790;2024-01-15T13:11:04;93400.63;;;0.17;100.00
68889;BME280;55930;47.412;8.790;2024-01-15T13:14:25;93388.53;;;0.11;100.00
68889;BME280;55930;47.412;8.790;2024-01-15T13:17:46;93402.84;;;0.06;100.00
68889;BME280;55930;47.412;8.790;2024-01-15T13:21:06;93392.06;;;0.17;100.00
68889;BME280;55930;47.412;8.790;2024-01-15T13:24:26;93394.56;;;0.20;100.00
68889;BME280;55930;47.412;8.790;2024-01-15T13:27:47;93415.44;;;0.20;100.00
68889;BME280;55930;47.412;8.790;2024-01-15T13:31:07;93416.03;;;0.24;100.00
68889;BME280;55930;47.412;8.790;2024-01-15T13:34:28;93410.81;;;0.24;100.00
68889;BME280;55930;47.412;8.790;2024-01-15T13:37:49;93413.88;;;0.23;100.00
68889;BME280;55930;47.412;8.790;2024-01-15T13:41:09;93413.44;;;0.24;100.00
68889;BME280;55930;47.412;8.790;2024-01-15T13:44:30;93414.69;;;0.20;100.00
68889;BME280;55930;47.412;8.790;2024-01-15T13:47:50;93411.88;;;0.27;100.00
68889;BME280;55930;47.412;8.790;2024-01-15T13:51:10;93417.00;;;0.18;100.00
68889;BME280;55930;47.412;8.790;2024-01-15T13:54:33;93429.41;;;0.26;100.00
68889;BME280;55930;47.412;8.790;2024-01-15T13:57:54;93437.13;;;0.17;100.00
68889;BME280;55930;47.412;8.790;2024-01-15T14:01:17;93438.47;;;0.22;100.00
68889;BME280;55930;47.412;8.790;2024-01-15T14:04:41;93446.94;;;0.13;100.00
68889;BME280;55930;47.412;8.790;2024-01-15T14:08:01;93454.88;;;0.22;100.00
68889;BME280;55930;47.412;8.790;2024-01-15T14:11:23;93460.59;;;0.17;100.00
68889;BME280;55930;47.412;8.790;2024-01-15T14:14:43;93461.03;;;0.16;100.00
68889;BME280;55930;47.412;8.790;2024-01-15T14:18:04;93472.59;;;0.15;100.00
68889;BME280;55930;47.412;8.790;2024-01-15T14:21:24;93476.44;;;0.10;100.00
68889;BME280;55930;47.412;8.790;2024-01-15T14:24:45;93477.06;;;0.02;100.00
68889;BME280;55930;47.412;8.790;2024-01-15T14:28:05;93467.69;;;-0.09;100.00
68889;BME280;55930;47.412;8.790;2024-01-15T14:31:26;93460.41;;;-0.01;100.00
68889;BME280;55930;47.412;8.790;2024-01-15T14:34:48;93475.19;;;0.02;100.00
68889;BME280;55930;47.412;8.790;2024-01-15T14:38:09;93466.97;;;-0.09;100.00
68889;BME280;55930;47.412;8.790;2024-01-15T14:41:30;93476.25;;;-0.08;100.00
68889;BME280;55930;47.412;8.790;2024-01-15T14:44:50;93482.69;;;-0.13;100.00
68889;BME280;55930;47.412;8.790;2024-01-15T14:48:10;93494.91;;;-0.10;100.00
68889;BME280;55930;47.412;8.790;2024-01-15T14:51:31;93493.63;;;-0.18;100.00
68889;BME280;55930;47.412;8.790;2024-01-15T14:54:51;93507.19;;;-0.10;100.00
68889;BME280;55930;47.412;8.790;2024-01-15T14:58:11;93520.50;;;-0.21;100.00
68889;BME280;55930;47.412;8.790;2024-01-15T15:01:32;93536.34;;;-0.15;100.00
68889;BME280;55930;47.412;8.790;2024-01-15T15:04:52;93539.06;;;-0.19;100.00
68889;BME280;55930;47.412;8.790;2024-01-15T15:08:12;93552.91;;;-0.22;100.00
68889;BME280;55930;47.412;8.790;2024-01-15T15:11:33;93550.19;;;-0.31;100.00
68889;BME280;55930;47.412;8.790;2024-01-15T15:14:53;93554.91;;;-0.26;100.00
68889;BME280;55930;47.412;8.790;2024-01-15T15:18:19;93562.91;;;-0.33;100.00
68889;BME280;55930;47.412;8.790;2024-01-15T15:21:40;93568.06;;;-0.46;100.00
68889;BME280;55930;47.412;8.790;2024-01-15T15:25:00;93563.81;;;-0.40;100.00
68889;BME280;55930;47.412;8.790;2024-01-15T15:28:20;93566.59;;;-0.47;100.00
68889;BME280;55930;47.412;8.790;2024-01-15T15:31:41;93574.34;;;-0.43;100.00
68889;BME280;55930;47.412;8.790;2024-01-15T15:35:01;93588.91;;;-0.46;100.00
68889;BME280;55930;47.412;8.790;2024-01-15T15:38:22;93590.97;;;-0.53;100.00
68889;BME280;55930;47.412;8.790;2024-01-15T15:41:43;93598.28;;;-0.48;100.00
68889;BME280;55930;47.412;8.790;2024-01-15T15:45:04;93603.25;;;-0.54;100.00
68889;BME280;55930;47.412;8.790;2024-01-15T15:48:25;93614.88;;;-0.42;100.00
68889;BME280;55930;47.412;8.790;2024-01-15T15:51:45;93613.09;;;-0.61;100.00
68889;BME280;55930;47.412;8.790;2024-01-15T15:55:06;93615.13;;;-0.53;100.00
68889;BME280;55930;47.412;8.790;2024-01-15T15:58:30;93630.53;;;-0.58;100.00
68889;BME280;55930;47.412;8.790;2024-01-15T16:01:50;93630.28;;;-0.64;100.00
68889;BME280;55930;47.412;8.790;2024-01-15T16:05:11;93620.75;;;-0.70;100.00
68889;BME280;55930;47.412;8.790;2024-01-15T16:08:31;93643.56;;;-0.74;100.00
68889;BME280;55930;47.412;8.790;2024-01-15T16:11:51;93634.28;;;-0.75;100.00
68889;BME280;55930;47.412;8.790;2024-01-15T16:15:22;93633.56;;;-0.76;100.00
68889;BME280;55930;47.412;8.790;2024-01-15T16:18:43;93637.47;;;-0.84;100.00
68889;BME280;55930;47.412;8.790;2024-01-15T16:22:05;93642.16;;;-0.79;100.00
68889;BME280;55930;47.412;8.790;2024-01-15T16:25:28;93639.44;;;-0.88;100.00
68889;BME280;55930;47.412;8.790;2024-01-15T16:28:50;93642.16;;;-0.95;100.00
68889;BME280;55930;47.412;8.790;2024-01-15T16:32:10;93656.00;;;-0.98;100.00
68889;BME280;55930;47.412;8.790;2024-01-15T16:35:31;93649.66;;;-0.97;100.00
68889;BME280;55930;47.412;8.790;2024-01-15T16:38:52;93664.16;;;-0.96;100.00
68889;BME280;55930;47.412;8.790;2024-01-15T16:42:12;93652.34;;;-1.01;100.00
68889;BME280;55930;47.412;8.790;2024-01-15T16:45:36;93644.19;;;-1.03;100.00
68889;BME280;55930;47.412;8.790;2024-01-15T16:48:56;93657.31;;;-1.06;100.00
68889;BME280;55930;47.412;8.790;2024-01-15T16:52:17;93653.56;;;-1.05;100.00
68889;BME280;55930;47.412;8.790;2024-01-15T16:55:37;93669.59;;;-1.07;100.00
68889;BME280;55930;47.412;8.790;2024-01-15T16:58:57;93676.25;;;-1.06;100.00
68889;BME280;55930;47.412;8.790;2024-01-15T17:02:18;93674.69;;;-1.03;100.00
68889;BME280;55930;47.412;8.790;2024-01-15T17:05:38;93688.13;;;-1.05;100.00
68889;BME280;55930;47.412;8.790;2024-01-15T17:08:59;93675.34;;;-1.16;100.00
68889;BME280;55930;47.412;8.790;2024-01-15T17:12:19;93678.84;;;-1.06;100.00
68889;BME280;55930;47.412;8.790;2024-01-15T17:15:40;93685.59;;;-1.08;100.00
68889;BME280;55930;47.412;8.790;2024-01-15T17:19:01;93675.41;;;-1.19;100.00
68889;BME280;55930;47.412;8.790;2024-01-15T17:22:26;93675.91;;;-1.24;100.00
68889;BME280;55930;47.412;8.790;2024-01-15T17:25:46;93674.66;;;-1.20;100.00
68889;BME280;55930;47.412;8.790;2024-01-15T17:29:07;93680.38;;;-1.25;100.00
68889;BME280;55930;47.412;8.790;2024-01-15T17:32:27;93684.38;;;-1.20;100.00
68889;BME280;55930;47.412;8.790;2024-01-15T17:35:56;93684.38;;;-1.20;100.00
68889;BME280;55930;47.412;8.790;2024-01-15T17:39:16;93683.94;;;-1.19;100.00